sensor_id;sensor_type;location;lat;lon;timestamp;P1;durP1;ratioP1;P2;durP2;ratioP2
18159;SDS011;9205;52.032;4.314;2023-09-07T00:00:59;9.70;;;5.78;;
18159;SDS011;9205;52.032;4.314;2023-09-07T00:03:29;9.00;;;6.15;;
18159;SDS011;9205;52.032;4.314;2023-09-07T00:05:57;8.38;;;5.90;;
18159;SDS011;9205;52.032;4.314;2023-09-07T00:08:24;7.00;;;5.40;;
18159;SDS011;9205;52.032;4.314;2023-09-07T00:10:51;7.28;;;5.30;;
18159;SDS011;9205;52.032;4.314;2023-09-07T00:13:18;10.07;;;5.40;;
18159;SDS011;9205;52.032;4.314;2023-09-07T00:15:45;10.50;;;6.00;;
18159;SDS011;9205;52.032;4.314;2023-09-07T00:18:14;9.15;;;5.18;;
18159;SDS011;9205;52.032;4.314;2023-09-07T00:20:41;8.13;;;5.93;;
18159;SDS011;9205;52.032;4.314;2023-09-07T00:23:08;10.03;;;6.37;;
18159;SDS011;9205;52.032;4.314;2023-09-07T00:25:35;7.60;;;5.57;;
18159;SDS011;9205;52.032;4.314;2023-09-07T00:28:02;9.80;;;6.22;;
18159;SDS011;9205;52.032;4.314;2023-09-07T00:30:30;11.38;;;6.28;;
18159;SDS011;9205;52.032;4.314;2023-09-07T00:32:57;8.65;;;6.43;;
18159;SDS011;9205;52.032;4.314;2023-09-07T00:35:26;8.98;;;5.82;;
18159;SDS011;9205;52.032;4.314;2023-09-07T00:37:53;9.43;;;6.45;;
18159;SDS011;9205;52.032;4.314;2023-09-07T00:40:20;9.57;;;6.80;;
18159;SDS011;9205;52.032;4.314;2023-09-07T00:42:48;11.57;;;6.67;;
18159;SDS011;9205;52.032;4.314;2023-09-07T00:45:15;9.82;;;6.65;;
18159;SDS011;9205;52.032;4.314;2023-09-07T00:47:43;7.83;;;5.93;;
18159;SDS011;9205;52.032;4.314;2023-09-07T00:50:12;9.02;;;6.47;;
18159;SDS011;9205;52.032;4.314;2023-09-07T00:52:42;9.83;;;6.60;;
18159;SDS011;9205;52.032;4.314;2023-09-07T00:55:10;10.70;;;7.00;;
18159;SDS011;9205;52.032;4.314;2023-09-07T00:57:39;9.53;;;7.00;;
18159;SDS011;9205;52.032;4.314;2023-09-07T01:00:08;10.38;;;6.80;;
18159;SDS011;9205;52.032;4.314;2023-09-07T01:02:37;11.20;;;6.70;;
18159;SDS011;9205;52.032;4.314;2023-09-07T01:05:05;8.57;;;7.03;;
18159;SDS011;9205;52.032;4.314;2023-09-07T01:07:35;11.53;;;7.27;;
18159;SDS011;9205;52.032;4.314;2023-09-07T01:10:10;10.90;;;7.33;;
18159;SDS011;9205;52.032;4.314;2023-09-07T01:12:39;10.77;;;7.07;;
18159;SDS011;9205;52.032;4.314;2023-09-07T01:15:07;10.77;;;7.20;;
18159;SDS011;9205;52.032;4.314;2023-09-07T01:17:35;10.27;;;6.93;;
18159;SDS011;9205;52.032;4.314;2023-09-07T01:20:04;10.63;;;7.03;;
18159;SDS011;9205;52.032;4.314;2023-09-07T01:22:37;10.23;;;7.07;;
18159;SDS011;9205;52.032;4.314;2023-09-07T01:25:06;10.50;;;7.20;;
18159;SDS011;9205;52.032;4.314;2023-09-07T01:27:34;14.77;;;7.27;;
18159;SDS011;9205;52.032;4.314;2023-09-07T01:30:02;10.50;;;6.77;;
18159;SDS011;9205;52.032;4.314;2023-09-07T01:32:30;10.07;;;6.87;;
18159;SDS011;9205;52.032;4.314;2023-09-07T01:34:58;13.00;;;7.30;;
18159;SDS011;9205;52.032;4.314;2023-09-07T01:37:28;11.57;;;7.47;;
18159;SDS011;9205;52.032;4.314;2023-09-07T01:39:57;11.00;;;7.20;;
18159;SDS011;9205;52.032;4.314;2023-09-07T01:42:26;11.03;;;7.10;;
18159;SDS011;9205;52.032;4.314;2023-09-07T01:44:53;10.53;;;7.20;;
18159;SDS011;9205;52.032;4.314;2023-09-07T01:47:20;13.03;;;7.50;;
18159;SDS011;9205;52.032;4.314;2023-09-07T01:49:47;10.20;;;7.53;;
18159;SDS011;9205;52.032;4.314;2023-09-07T01:52:14;9.83;;;7.03;;
18159;SDS011;9205;52.032;4.314;2023-09-07T01:54:42;11.93;;;7.87;;
18159;SDS011;9205;52.032;4.314;2023-09-07T01:57:11;11.60;;;7.47;;
18159;SDS011;9205;52.032;4.314;2023-09-07T01:59:38;10.73;;;7.47;;
18159;SDS011;9205;52.032;4.314;2023-09-07T02:02:05;11.43;;;7.80;;
18159;SDS011;9205;52.032;4.314;2023-09-07T02:04:32;11.73;;;7.43;;
18159;SDS011;9205;52.032;4.314;2023-09-07T02:07:00;10.63;;;7.83;;
18159;SDS011;9205;52.032;4.314;2023-09-07T02:09:27;12.47;;;7.90;;
18159;SDS011;9205;52.032;4.314;2023-09-07T02:11:54;11.80;;;7.13;;
18159;SDS011;9205;52.032;4.314;2023-09-07T02:14:23;11.37;;;7.30;;
18159;SDS011;9205;52.032;4.314;2023-09-07T02:16:50;12.50;;;8.03;;
18159;SDS011;9205;52.032;4.314;2023-09-07T02:19:17;13.07;;;8.77;;
18159;SDS011;9205;52.032;4.314;2023-09-07T02:21:47;12.30;;;7.97;;
18159;SDS011;9205;52.032;4.314;2023-09-07T02:24:15;12.70;;;8.70;;
18159;SDS011;9205;52.032;4.314;2023-09-07T02:26:42;11.97;;;8.50;;
18159;SDS011;9205;52.032;4.314;2023-09-07T02:29:11;11.17;;;8.07;;
18159;SDS011;9205;52.032;4.314;2023-09-07T02:31:39;12.67;;;8.63;;
18159;SDS011;9205;52.032;4.314;2023-09-07T02:34:07;14.30;;;8.43;;
18159;SDS011;9205;52.032;4.314;2023-09-07T02:36:35;11.47;;;8.10;;
18159;SDS011;9205;52.032;4.314;2023-09-07T02:39:02;13.70;;;8.80;;
18159;SDS011;9205;52.032;4.314;2023-09-07T02:41:30;11.53;;;8.10;;
18159;SDS011;9205;52.032;4.314;2023-09-07T02:43:58;14.33;;;9.20;;
18159;SDS011;9205;52.032;4.314;2023-09-07T02:46:25;13.37;;;7.93;;
18159;SDS011;9205;52.032;4.314;2023-09-07T02:48:53;13.37;;;8.80;;
18159;SDS011;9205;52.032;4.314;2023-09-07T02:51:22;12.33;;;8.27;;
18159;SDS011;9205;52.032;4.314;2023-09-07T02:53:50;13.80;;;8.87;;
18159;SDS011;9205;52.032;4.314;2023-09-07T02:56:17;12.27;;;8.23;;
18159;SDS011;9205;52.032;4.314;2023-09-07T02:58:45;12.43;;;8.17;;
18159;SDS011;9205;52.032;4.314;2023-09-07T03:01:12;14.00;;;8.87;;
18159;SDS011;9205;52.032;4.314;2023-09-07T03:03:39;11.90;;;8.67;;
18159;SDS011;9205;52.032;4.314;2023-09-07T03:06:11;14.23;;;9.40;;
18159;SDS011;9205;52.032;4.314;2023-09-07T03:08:43;11.37;;;8.23;;
18159;SDS011;9205;52.032;4.314;2023-09-07T03:11:11;14.50;;;9.67;;
18159;SDS011;9205;52.032;4.314;2023-09-07T03:13:39;13.33;;;8.63;;
18159;SDS011;9205;52.032;4.314;2023-09-07T03:16:07;13.37;;;8.70;;
18159;SDS011;9205;52.032;4.314;2023-09-07T03:18:34;13.90;;;9.10;;
18159;SDS011;9205;52.032;4.314;2023-09-07T03:21:02;14.90;;;9.37;;
18159;SDS011;9205;52.032;4.314;2023-09-07T03:23:31;13.30;;;9.63;;
18159;SDS011;9205;52.032;4.314;2023-09-07T03:26:00;12.40;;;9.03;;
18159;SDS011;9205;52.032;4.314;2023-09-07T03:28:27;15.10;;;8.93;;
18159;SDS011;9205;52.032;4.314;2023-09-07T03:30:55;14.50;;;9.20;;
18159;SDS011;9205;52.032;4.314;2023-09-07T03:33:22;13.93;;;8.70;;
18159;SDS011;9205;52.032;4.314;2023-09-07T03:35:50;13.83;;;9.67;;
18159;SDS011;9205;52.032;4.314;2023-09-07T03:38:18;12.43;;;9.07;;
18159;SDS011;9205;52.032;4.314;2023-09-07T03:40:46;13.07;;;9.33;;
18159;SDS011;9205;52.032;4.314;2023-09-07T03:43:14;14.90;;;10.17;;
18159;SDS011;9205;52.032;4.314;2023-09-07T03:45:41;13.63;;;9.43;;
18159;SDS011;9205;52.032;4.314;2023-09-07T03:48:09;13.73;;;9.63;;
18159;SDS011;9205;52.032;4.314;2023-09-07T03:50:37;13.77;;;9.67;;
18159;SDS011;9205;52.032;4.314;2023-09-07T03:53:04;17.17;;;10.27;;
18159;SDS011;9205;52.032;4.314;2023-09-07T03:55:39;15.17;;;10.60;;
18159;SDS011;9205;52.032;4.314;2023-09-07T03:58:10;17.63;;;10.77;;
18159;SDS011;9205;52.032;4.314;2023-09-07T04:00:39;15.23;;;10.77;;
18159;SDS011;9205;52.032;4.314;2023-09-07T04:03:06;14.90;;;10.03;;
18159;SDS011;9205;52.032;4.314;2023-09-07T04:05:36;17.37;;;10.50;;
18159;SDS011;9205;52.032;4.314;2023-09-07T04:08:05;16.87;;;10.00;;
18159;SDS011;9205;52.032;4.314;2023-09-07T04:10:36;15.40;;;10.33;;
18159;SDS011;9205;52.032;4.314;2023-09-07T04:13:04;14.57;;;10.27;;
18159;SDS011;9205;52.032;4.314;2023-09-07T04:15:33;16.87;;;10.17;;
18159;SDS011;9205;52.032;4.314;2023-09-07T04:18:01;17.87;;;10.00;;
18159;SDS011;9205;52.032;4.314;2023-09-07T04:20:29;16.27;;;10.70;;
18159;SDS011;9205;52.032;4.314;2023-09-07T04:22:56;14.97;;;10.50;;
18159;SDS011;9205;52.032;4.314;2023-09-07T04:25:23;16.13;;;11.30;;
18159;SDS011;9205;52.032;4.314;2023-09-07T04:27:51;17.80;;;11.30;;
18159;SDS011;9205;52.032;4.314;2023-09-07T04:30:18;17.90;;;10.80;;
18159;SDS011;9205;52.032;4.314;2023-09-07T04:32:47;19.00;;;11.23;;
18159;SDS011;9205;52.032;4.314;2023-09-07T04:35:14;17.73;;;11.43;;
18159;SDS011;9205;52.032;4.314;2023-09-07T04:37:42;17.37;;;11.77;;
18159;SDS011;9205;52.032;4.314;2023-09-07T04:40:10;20.97;;;12.23;;
18159;SDS011;9205;52.032;4.314;2023-09-07T04:42:38;16.37;;;11.33;;
18159;SDS011;9205;52.032;4.314;2023-09-07T04:45:06;17.83;;;11.87;;
18159;SDS011;9205;52.032;4.314;2023-09-07T04:47:36;18.13;;;11.63;;
18159;SDS011;9205;52.032;4.314;2023-09-07T04:50:05;18.13;;;11.80;;
18159;SDS011;9205;52.032;4.314;2023-09-07T04:52:34;18.67;;;11.80;;
18159;SDS011;9205;52.032;4.314;2023-09-07T04:55:01;17.03;;;11.50;;
18159;SDS011;9205;52.032;4.314;2023-09-07T04:57:29;18.20;;;12.13;;
18159;SDS011;9205;52.032;4.314;2023-09-07T04:59:57;18.00;;;11.83;;
18159;SDS011;9205;52.032;4.314;2023-09-07T05:02:24;19.47;;;12.07;;
18159;SDS011;9205;52.032;4.314;2023-09-07T05:04:52;19.73;;;12.53;;
18159;SDS011;9205;52.032;4.314;2023-09-07T05:07:20;16.33;;;11.37;;
18159;SDS011;9205;52.032;4.314;2023-09-07T05:09:48;15.60;;;10.73;;
18159;SDS011;9205;52.032;4.314;2023-09-07T05:12:15;18.73;;;12.10;;
18159;SDS011;9205;52.032;4.314;2023-09-07T05:14:43;17.70;;;11.53;;
18159;SDS011;9205;52.032;4.314;2023-09-07T05:17:10;19.30;;;12.40;;
18159;SDS011;9205;52.032;4.314;2023-09-07T05:19:38;19.47;;;12.07;;
18159;SDS011;9205;52.032;4.314;2023-09-07T05:22:05;19.97;;;11.93;;
18159;SDS011;9205;52.032;4.314;2023-09-07T05:24:34;17.77;;;12.00;;
18159;SDS011;9205;52.032;4.314;2023-09-07T05:27:04;19.33;;;12.00;;
18159;SDS011;9205;52.032;4.314;2023-09-07T05:29:32;17.93;;;11.47;;
18159;SDS011;9205;52.032;4.314;2023-09-07T05:31:59;20.63;;;12.57;;
18159;SDS011;9205;52.032;4.314;2023-09-07T05:34:27;18.47;;;11.57;;
18159;SDS011;9205;52.032;4.314;2023-09-07T05:36:55;18.67;;;11.60;;
18159;SDS011;9205;52.032;4.314;2023-09-07T05:39:22;20.47;;;11.93;;
18159;SDS011;9205;52.032;4.314;2023-09-07T05:41:51;20.60;;;12.40;;
18159;SDS011;9205;52.032;4.314;2023-09-07T05:44:18;18.63;;;11.50;;
18159;SDS011;9205;52.032;4.314;2023-09-07T05:46:45;22.77;;;12.27;;
18159;SDS011;9205;52.032;4.314;2023-09-07T05:49:13;17.77;;;11.73;;
18159;SDS011;9205;52.032;4.314;2023-09-07T05:51:40;18.97;;;11.30;;
18159;SDS011;9205;52.032;4.314;2023-09-07T05:54:08;20.00;;;12.07;;
18159;SDS011;9205;52.032;4.314;2023-09-07T05:56:35;18.90;;;11.60;;
18159;SDS011;9205;52.032;4.314;2023-09-07T05:59:03;16.83;;;11.53;;
18159;SDS011;9205;52.032;4.314;2023-09-07T06:01:31;19.43;;;12.37;;
18159;SDS011;9205;52.032;4.314;2023-09-07T06:03:58;17.90;;;12.20;;
18159;SDS011;9205;52.032;4.314;2023-09-07T06:06:25;18.13;;;11.43;;
18159;SDS011;9205;52.032;4.314;2023-09-07T06:08:53;16.60;;;11.60;;
18159;SDS011;9205;52.032;4.314;2023-09-07T06:11:20;18.80;;;11.80;;
18159;SDS011;9205;52.032;4.314;2023-09-07T06:13:47;22.00;;;12.70;;
18159;SDS011;9205;52.032;4.314;2023-09-07T06:16:16;20.80;;;12.20;;
18159;SDS011;9205;52.032;4.314;2023-09-07T06:18:44;20.27;;;13.07;;
18159;SDS011;9205;52.032;4.314;2023-09-07T06:21:11;21.33;;;11.83;;
18159;SDS011;9205;52.032;4.314;2023-09-07T06:23:38;23.43;;;12.50;;
18159;SDS011;9205;52.032;4.314;2023-09-07T06:26:06;19.37;;;12.70;;
18159;SDS011;9205;52.032;4.314;2023-09-07T06:28:33;19.43;;;11.77;;
18159;SDS011;9205;52.032;4.314;2023-09-07T06:31:00;21.13;;;12.37;;
18159;SDS011;9205;52.032;4.314;2023-09-07T06:33:29;20.60;;;12.00;;
18159;SDS011;9205;52.032;4.314;2023-09-07T06:35:57;20.37;;;12.53;;
18159;SDS011;9205;52.032;4.314;2023-09-07T06:38:27;17.17;;;10.97;;
18159;SDS011;9205;52.032;4.314;2023-09-07T06:40:54;17.33;;;11.90;;
18159;SDS011;9205;52.032;4.314;2023-09-07T06:43:22;22.73;;;11.77;;
18159;SDS011;9205;52.032;4.314;2023-09-07T06:45:49;19.07;;;11.50;;
18159;SDS011;9205;52.032;4.314;2023-09-07T06:48:16;21.53;;;11.93;;
18159;SDS011;9205;52.032;4.314;2023-09-07T06:50:45;19.10;;;12.33;;
18159;SDS011;9205;52.032;4.314;2023-09-07T06:53:14;21.00;;;11.80;;
18159;SDS011;9205;52.032;4.314;2023-09-07T06:55:41;17.80;;;11.43;;
18159;SDS011;9205;52.032;4.314;2023-09-07T06:58:08;18.40;;;11.70;;
18159;SDS011;9205;52.032;4.314;2023-09-07T07:00:35;16.77;;;11.27;;
18159;SDS011;9205;52.032;4.314;2023-09-07T07:03:03;19.60;;;12.23;;
18159;SDS011;9205;52.032;4.314;2023-09-07T07:05:31;18.77;;;11.13;;
18159;SDS011;9205;52.032;4.314;2023-09-07T07:08:00;18.53;;;11.10;;
18159;SDS011;9205;52.032;4.314;2023-09-07T07:10:28;17.77;;;11.30;;
18159;SDS011;9205;52.032;4.314;2023-09-07T07:12:55;19.30;;;11.23;;
18159;SDS011;9205;52.032;4.314;2023-09-07T07:15:22;17.80;;;11.57;;
18159;SDS011;9205;52.032;4.314;2023-09-07T07:17:50;16.77;;;10.87;;
18159;SDS011;9205;52.032;4.314;2023-09-07T07:20:17;17.53;;;11.10;;
18159;SDS011;9205;52.032;4.314;2023-09-07T07:22:45;17.33;;;10.87;;
18159;SDS011;9205;52.032;4.314;2023-09-07T07:25:16;15.37;;;10.57;;
18159;SDS011;9205;52.032;4.314;2023-09-07T07:27:43;16.13;;;10.07;;
18159;SDS011;9205;52.032;4.314;2023-09-07T07:30:12;19.17;;;10.77;;
18159;SDS011;9205;52.032;4.314;2023-09-07T07:32:40;16.87;;;11.10;;
18159;SDS011;9205;52.032;4.314;2023-09-07T07:35:08;18.93;;;11.63;;
18159;SDS011;9205;52.032;4.314;2023-09-07T07:37:35;20.50;;;10.70;;
18159;SDS011;9205;52.032;4.314;2023-09-07T07:40:04;18.17;;;10.87;;
18159;SDS011;9205;52.032;4.314;2023-09-07T07:42:34;17.17;;;10.73;;
18159;SDS011;9205;52.032;4.314;2023-09-07T07:45:01;15.27;;;9.90;;
18159;SDS011;9205;52.032;4.314;2023-09-07T07:47:29;16.37;;;9.93;;
18159;SDS011;9205;52.032;4.314;2023-09-07T07:49:56;15.37;;;9.37;;
18159;SDS011;9205;52.032;4.314;2023-09-07T07:52:23;18.97;;;10.83;;
18159;SDS011;9205;52.032;4.314;2023-09-07T07:54:52;13.67;;;8.80;;
18159;SDS011;9205;52.032;4.314;2023-09-07T07:57:20;15.10;;;9.40;;
18159;SDS011;9205;52.032;4.314;2023-09-07T07:59:49;15.60;;;9.53;;
18159;SDS011;9205;52.032;4.314;2023-09-07T08:02:16;12.80;;;8.80;;
18159;SDS011;9205;52.032;4.314;2023-09-07T08:04:43;14.63;;;9.00;;
18159;SDS011;9205;52.032;4.314;2023-09-07T08:07:11;14.17;;;8.23;;
18159;SDS011;9205;52.032;4.314;2023-09-07T08:09:38;12.57;;;8.50;;
18159;SDS011;9205;52.032;4.314;2023-09-07T08:12:06;14.57;;;9.27;;
18159;SDS011;9205;52.032;4.314;2023-09-07T08:14:34;13.87;;;9.13;;
18159;SDS011;9205;52.032;4.314;2023-09-07T08:17:04;12.47;;;8.03;;
18159;SDS011;9205;52.032;4.314;2023-09-07T08:19:33;12.40;;;7.90;;
18159;SDS011;9205;52.032;4.314;2023-09-07T08:22:01;12.07;;;8.47;;
18159;SDS011;9205;52.032;4.314;2023-09-07T08:24:29;11.57;;;7.67;;
18159;SDS011;9205;52.032;4.314;2023-09-07T08:26:56;19.07;;;9.53;;
18159;SDS011;9205;52.032;4.314;2023-09-07T08:29:25;14.30;;;8.73;;
18159;SDS011;9205;52.032;4.314;2023-09-07T08:31:53;11.17;;;8.17;;
18159;SDS011;9205;52.032;4.314;2023-09-07T08:34:21;11.90;;;7.87;;
18159;SDS011;9205;52.032;4.314;2023-09-07T08:36:49;12.87;;;8.43;;
18159;SDS011;9205;52.032;4.314;2023-09-07T08:39:18;12.90;;;8.17;;
18159;SDS011;9205;52.032;4.314;2023-09-07T08:41:47;12.53;;;7.77;;
18159;SDS011;9205;52.032;4.314;2023-09-07T08:44:16;14.73;;;8.07;;
18159;SDS011;9205;52.032;4.314;2023-09-07T08:46:44;12.67;;;7.80;;
18159;SDS011;9205;52.032;4.314;2023-09-07T08:49:13;11.83;;;7.17;;
18159;SDS011;9205;52.032;4.314;2023-09-07T08:51:45;12.53;;;7.97;;
18159;SDS011;9205;52.032;4.314;2023-09-07T08:54:13;11.10;;;7.20;;
18159;SDS011;9205;52.032;4.314;2023-09-07T08:56:41;12.33;;;7.57;;
18159;SDS011;9205;52.032;4.314;2023-09-07T08:59:08;12.17;;;7.40;;
18159;SDS011;9205;52.032;4.314;2023-09-07T09:01:35;11.93;;;7.93;;
18159;SDS011;9205;52.032;4.314;2023-09-07T09:04:02;12.25;;;7.90;;
18159;SDS011;9205;52.032;4.314;2023-09-07T09:06:30;10.90;;;6.97;;
18159;SDS011;9205;52.032;4.314;2023-09-07T09:08:59;11.23;;;7.10;;
18159;SDS011;9205;52.032;4.314;2023-09-07T09:11:26;11.63;;;6.35;;
18159;SDS011;9205;52.032;4.314;2023-09-07T09:13:54;9.23;;;6.55;;
18159;SDS011;9205;52.032;4.314;2023-09-07T09:16:21;10.40;;;6.35;;
18159;SDS011;9205;52.032;4.314;2023-09-07T09:18:48;9.13;;;6.50;;
18159;SDS011;9205;52.032;4.314;2023-09-07T09:21:17;11.90;;;6.20;;
18159;SDS011;9205;52.032;4.314;2023-09-07T09:23:46;10.98;;;6.60;;
18159;SDS011;9205;52.032;4.314;2023-09-07T09:26:17;9.60;;;6.32;;
18159;SDS011;9205;52.032;4.314;2023-09-07T09:28:45;8.77;;;5.95;;
18159;SDS011;9205;52.032;4.314;2023-09-07T09:31:13;10.93;;;6.22;;
18159;SDS011;9205;52.032;4.314;2023-09-07T09:33:41;10.82;;;5.88;;
18159;SDS011;9205;52.032;4.314;2023-09-07T09:36:09;8.10;;;5.75;;
18159;SDS011;9205;52.032;4.314;2023-09-07T09:38:36;9.23;;;5.63;;
18159;SDS011;9205;52.032;4.314;2023-09-07T09:41:03;10.60;;;6.25;;
18159;SDS011;9205;52.032;4.314;2023-09-07T09:43:34;8.38;;;5.43;;
18159;SDS011;9205;52.032;4.314;2023-09-07T09:46:01;8.35;;;5.30;;
18159;SDS011;9205;52.032;4.314;2023-09-07T09:48:31;8.65;;;5.55;;
18159;SDS011;9205;52.032;4.314;2023-09-07T09:51:00;9.57;;;5.97;;
18159;SDS011;9205;52.032;4.314;2023-09-07T09:53:30;9.23;;;6.15;;
18159;SDS011;9205;52.032;4.314;2023-09-07T09:55:58;8.38;;;5.72;;
18159;SDS011;9205;52.032;4.314;2023-09-07T09:58:26;9.48;;;5.82;;
18159;SDS011;9205;52.032;4.314;2023-09-07T10:00:56;10.02;;;5.80;;
18159;SDS011;9205;52.032;4.314;2023-09-07T10:03:25;10.35;;;5.53;;
18159;SDS011;9205;52.032;4.314;2023-09-07T10:06:06;7.75;;;5.20;;
18159;SDS011;9205;52.032;4.314;2023-09-07T10:08:35;7.55;;;5.43;;
18159;SDS011;9205;52.032;4.314;2023-09-07T10:11:06;9.63;;;5.50;;
18159;SDS011;9205;52.032;4.314;2023-09-07T10:13:35;10.48;;;5.00;;
18159;SDS011;9205;52.032;4.314;2023-09-07T10:16:04;9.98;;;5.40;;
18159;SDS011;9205;52.032;4.314;2023-09-07T10:18:34;8.52;;;5.50;;
18159;SDS011;9205;52.032;4.314;2023-09-07T10:21:02;10.43;;;5.47;;
18159;SDS011;9205;52.032;4.314;2023-09-07T10:23:39;8.77;;;5.40;;
18159;SDS011;9205;52.032;4.314;2023-09-07T10:26:11;6.78;;;4.60;;
18159;SDS011;9205;52.032;4.314;2023-09-07T10:28:41;8.00;;;5.35;;
18159;SDS011;9205;52.032;4.314;2023-09-07T10:31:14;8.57;;;5.30;;
18159;SDS011;9205;52.032;4.314;2023-09-07T10:33:45;7.80;;;5.10;;
18159;SDS011;9205;52.032;4.314;2023-09-07T10:36:20;8.43;;;5.43;;
18159;SDS011;9205;52.032;4.314;2023-09-07T10:38:48;9.27;;;5.38;;
18159;SDS011;9205;52.032;4.314;2023-09-07T10:41:18;6.63;;;4.63;;
18159;SDS011;9205;52.032;4.314;2023-09-07T10:43:49;6.18;;;4.40;;
18159;SDS011;9205;52.032;4.314;2023-09-07T10:46:19;8.43;;;4.63;;
18159;SDS011;9205;52.032;4.314;2023-09-07T10:48:48;6.70;;;4.65;;
18159;SDS011;9205;52.032;4.314;2023-09-07T10:51:17;6.30;;;4.65;;
18159;SDS011;9205;52.032;4.314;2023-09-07T10:53:44;7.30;;;4.30;;
18159;SDS011;9205;52.032;4.314;2023-09-07T10:56:12;7.63;;;4.55;;
18159;SDS011;9205;52.032;4.314;2023-09-07T10:58:39;5.88;;;4.28;;
18159;SDS011;9205;52.032;4.314;2023-09-07T11:01:08;6.03;;;3.72;;
18159;SDS011;9205;52.032;4.314;2023-09-07T11:03:37;7.63;;;4.20;;
18159;SDS011;9205;52.032;4.314;2023-09-07T11:06:06;9.63;;;4.38;;
18159;SDS011;9205;52.032;4.314;2023-09-07T11:08:38;6.75;;;4.10;;
18159;SDS011;9205;52.032;4.314;2023-09-07T11:11:05;7.25;;;4.88;;
18159;SDS011;9205;52.032;4.314;2023-09-07T11:13:32;6.85;;;4.55;;
18159;SDS011;9205;52.032;4.314;2023-09-07T11:16:01;6.90;;;4.43;;
18159;SDS011;9205;52.032;4.314;2023-09-07T11:18:29;7.10;;;4.45;;
18159;SDS011;9205;52.032;4.314;2023-09-07T11:20:57;6.75;;;3.78;;
18159;SDS011;9205;52.032;4.314;2023-09-07T11:23:27;7.93;;;4.18;;
18159;SDS011;9205;52.032;4.314;2023-09-07T11:26:03;6.80;;;4.20;;
18159;SDS011;9205;52.032;4.314;2023-09-07T11:28:31;5.45;;;3.97;;
18159;SDS011;9205;52.032;4.314;2023-09-07T11:30:58;5.03;;;3.70;;
18159;SDS011;9205;52.032;4.314;2023-09-07T11:33:26;5.57;;;3.90;;
18159;SDS011;9205;52.032;4.314;2023-09-07T11:35:59;8.40;;;4.18;;
18159;SDS011;9205;52.032;4.314;2023-09-07T11:38:28;4.95;;;3.50;;
18159;SDS011;9205;52.032;4.314;2023-09-07T11:41:01;5.38;;;3.47;;
18159;SDS011;9205;52.032;4.314;2023-09-07T11:43:28;4.63;;;3.30;;
18159;SDS011;9205;52.032;4.314;2023-09-07T11:45:55;5.80;;;3.20;;
18159;SDS011;9205;52.032;4.314;2023-09-07T11:48:23;5.78;;;3.63;;
18159;SDS011;9205;52.032;4.314;2023-09-07T11:50:50;4.55;;;3.40;;
18159;SDS011;9205;52.032;4.314;2023-09-07T11:53:18;4.47;;;3.20;;
18159;SDS011;9205;52.032;4.314;2023-09-07T11:55:45;5.03;;;3.20;;
18159;SDS011;9205;52.032;4.314;2023-09-07T11:58:13;4.40;;;3.22;;
18159;SDS011;9205;52.032;4.314;2023-09-07T12:00:40;6.57;;;3.67;;
18159;SDS011;9205;52.032;4.314;2023-09-07T12:03:08;4.75;;;3.25;;
18159;SDS011;9205;52.032;4.314;2023-09-07T12:05:35;7.85;;;3.20;;
18159;SDS011;9205;52.032;4.314;2023-09-07T12:08:05;5.28;;;3.00;;
18159;SDS011;9205;52.032;4.314;2023-09-07T12:10:33;4.72;;;2.92;;
18159;SDS011;9205;52.032;4.314;2023-09-07T12:13:00;5.63;;;3.10;;
18159;SDS011;9205;52.032;4.314;2023-09-07T12:15:28;5.07;;;3.17;;
18159;SDS011;9205;52.032;4.314;2023-09-07T12:17:55;4.63;;;2.97;;
18159;SDS011;9205;52.032;4.314;2023-09-07T12:20:22;4.85;;;3.03;;
18159;SDS011;9205;52.032;4.314;2023-09-07T12:22:50;4.50;;;2.80;;
18159;SDS011;9205;52.032;4.314;2023-09-07T12:25:17;5.22;;;3.30;;
18159;SDS011;9205;52.032;4.314;2023-09-07T12:27:45;5.25;;;3.00;;
18159;SDS011;9205;52.032;4.314;2023-09-07T12:30:13;3.20;;;2.70;;
18159;SDS011;9205;52.032;4.314;2023-09-07T12:32:43;4.53;;;3.15;;
18159;SDS011;9205;52.032;4.314;2023-09-07T12:35:10;4.45;;;2.90;;
18159;SDS011;9205;52.032;4.314;2023-09-07T12:37:37;4.93;;;2.83;;
18159;SDS011;9205;52.032;4.314;2023-09-07T12:40:05;4.45;;;2.88;;
18159;SDS011;9205;52.032;4.314;2023-09-07T12:42:37;4.25;;;2.95;;
18159;SDS011;9205;52.032;4.314;2023-09-07T12:45:08;4.15;;;2.85;;
18159;SDS011;9205;52.032;4.314;2023-09-07T12:47:36;3.95;;;3.08;;
18159;SDS011;9205;52.032;4.314;2023-09-07T12:50:05;4.20;;;2.90;;
18159;SDS011;9205;52.032;4.314;2023-09-07T12:52:33;3.92;;;2.80;;
18159;SDS011;9205;52.032;4.314;2023-09-07T12:55:02;4.45;;;2.95;;
18159;SDS011;9205;52.032;4.314;2023-09-07T12:57:31;5.32;;;3.08;;
18159;SDS011;9205;52.032;4.314;2023-09-07T12:59:58;4.18;;;3.10;;
18159;SDS011;9205;52.032;4.314;2023-09-07T13:02:27;5.55;;;3.45;;
18159;SDS011;9205;52.032;4.314;2023-09-07T13:04:54;4.88;;;3.58;;
18159;SDS011;9205;52.032;4.314;2023-09-07T13:07:21;4.88;;;2.75;;
18159;SDS011;9205;52.032;4.314;2023-09-07T13:09:48;3.47;;;2.85;;
18159;SDS011;9205;52.032;4.314;2023-09-07T13:12:16;4.53;;;3.05;;
18159;SDS011;9205;52.032;4.314;2023-09-07T13:14:43;4.53;;;2.95;;
18159;SDS011;9205;52.032;4.314;2023-09-07T13:17:11;4.40;;;3.08;;
18159;SDS011;9205;52.032;4.314;2023-09-07T13:19:41;3.80;;;2.60;;
18159;SDS011;9205;52.032;4.314;2023-09-07T13:22:09;3.67;;;2.67;;
18159;SDS011;9205;52.032;4.314;2023-09-07T13:24:36;3.28;;;2.70;;
18159;SDS011;9205;52.032;4.314;2023-09-07T13:27:03;4.28;;;3.00;;
18159;SDS011;9205;52.032;4.314;2023-09-07T13:29:31;3.80;;;2.85;;
18159;SDS011;9205;52.032;4.314;2023-09-07T13:31:58;4.10;;;2.70;;
18159;SDS011;9205;52.032;4.314;2023-09-07T13:34:26;3.78;;;2.70;;
18159;SDS011;9205;52.032;4.314;2023-09-07T13:36:54;4.13;;;2.90;;
18159;SDS011;9205;52.032;4.314;2023-09-07T13:39:22;4.35;;;2.75;;
18159;SDS011;9205;52.032;4.314;2023-09-07T13:41:49;4.43;;;2.95;;
18159;SDS011;9205;52.032;4.314;2023-09-07T13:44:17;6.03;;;2.83;;
18159;SDS011;9205;52.032;4.314;2023-09-07T13:46:44;4.68;;;2.80;;
18159;SDS011;9205;52.032;4.314;2023-09-07T13:49:12;4.63;;;2.70;;
18159;SDS011;9205;52.032;4.314;2023-09-07T13:51:39;4.20;;;2.78;;
18159;SDS011;9205;52.032;4.314;2023-09-07T13:54:08;5.45;;;2.90;;
18159;SDS011;9205;52.032;4.314;2023-09-07T13:56:36;4.10;;;2.80;;
18159;SDS011;9205;52.032;4.314;2023-09-07T13:59:03;4.30;;;2.92;;
18159;SDS011;9205;52.032;4.314;2023-09-07T14:01:31;4.75;;;2.83;;
18159;SDS011;9205;52.032;4.314;2023-09-07T14:03:58;3.35;;;2.65;;
18159;SDS011;9205;52.032;4.314;2023-09-07T14:06:26;6.32;;;3.00;;
18159;SDS011;9205;52.032;4.314;2023-09-07T14:08:53;6.38;;;3.38;;
18159;SDS011;9205;52.032;4.314;2023-09-07T14:11:22;5.32;;;2.90;;
18159;SDS011;9205;52.032;4.314;2023-09-07T14:13:49;4.05;;;2.80;;
18159;SDS011;9205;52.032;4.314;2023-09-07T14:16:17;3.85;;;3.00;;
18159;SDS011;9205;52.032;4.314;2023-09-07T14:18:45;3.85;;;2.90;;
18159;SDS011;9205;52.032;4.314;2023-09-07T14:21:13;4.25;;;2.70;;
18159;SDS011;9205;52.032;4.314;2023-09-07T14:23:41;3.60;;;2.80;;
18159;SDS011;9205;52.032;4.314;2023-09-07T14:26:09;5.15;;;2.70;;
18159;SDS011;9205;52.032;4.314;2023-09-07T14:28:37;5.78;;;2.70;;
18159;SDS011;9205;52.032;4.314;2023-09-07T14:31:05;4.20;;;2.88;;
18159;SDS011;9205;52.032;4.314;2023-09-07T14:33:33;4.15;;;2.70;;
18159;SDS011;9205;52.032;4.314;2023-09-07T14:36:04;4.07;;;2.70;;
18159;SDS011;9205;52.032;4.314;2023-09-07T14:38:31;4.15;;;2.92;;
18159;SDS011;9205;52.032;4.314;2023-09-07T14:41:05;4.50;;;2.90;;
18159;SDS011;9205;52.032;4.314;2023-09-07T14:43:32;3.65;;;2.63;;
18159;SDS011;9205;52.032;4.314;2023-09-07T14:46:01;4.10;;;2.67;;
18159;SDS011;9205;52.032;4.314;2023-09-07T14:48:28;4.80;;;2.80;;
18159;SDS011;9205;52.032;4.314;2023-09-07T14:50:55;3.65;;;2.65;;
18159;SDS011;9205;52.032;4.314;2023-09-07T14:53:23;5.30;;;2.90;;
18159;SDS011;9205;52.032;4.314;2023-09-07T14:55:50;3.35;;;2.80;;